Time;durP1;ratioP1;P1;durP2;ratioP2;P2;SDS_P1;SDS_P2;PMS_P1;PMS_P2;Temp;Humidity;BMP_temperature;BMP_pressure;BME280_temperature;BME280_humidity;BME280_pressure;Samples;Min_cycle;Max_cycle;Signal;HPM_P1;HPM_P2
2023/12/05 00:00:49;;;;;;;3.70;2.53;;;14.10;99.90;;;13.99;43.11;99522.38;4907743;28;97499;-51
2023/12/05 00:03:14;;;;;;;3.10;2.00;;;13.90;99.90;;;14.11;43.46;99527.81;4906828;28;98829;-49
2023/12/05 00:05:41;;;;;;;1.40;1.10;;;14.00;99.90;;;14.07;43.60;99526.34;4910103;28;96854;-47
2023/12/05 00:08:07;;;;;;;1.83;1.20;;;14.00;99.90;;;14.19;43.33;99518.41;4908761;28;98577;-54
2023/12/05 00:10:33;;;;;;;1.70;1.60;;;14.20;99.90;;;14.19;43.07;99509.59;4912094;28;98548;-55
2023/12/05 00:13:00;;;;;;;2.50;1.47;;;14.20;99.90;;;14.16;42.90;99510.63;4903419;28;96725;-47
2023/12/05 00:15:26;;;;;;;2.67;1.43;;;14.10;99.90;;;14.15;43.25;99521.34;4905439;28;97038;-49
2023/12/05 00:17:53;;;;;;;3.63;2.90;;;14.10;99.90;;;14.00;42.91;99507.31;4904206;28;97594;-51
2023/12/05 00:20:19;;;;;;;1.30;1.07;;;14.00;99.90;;;13.98;43.83;99502.13;4896780;28;98483;-52
2023/12/05 00:22:45;;;;;;;1.07;0.97;;;13.80;99.90;;;14.07;43.65;99503.31;4904075;28;98368;-50
2023/12/05 00:25:12;;;;;;;2.17;1.50;;;14.00;99.90;;;14.10;43.62;99500.44;4899829;28;98857;-50
2023/12/05 00:27:38;;;;;;;2.60;2.10;;;14.10;99.90;;;14.12;43.32;99487.09;4871092;28;97287;-51
2023/12/05 00:30:05;;;;;;;2.53;1.50;;;14.10;99.90;;;14.09;43.39;99492.59;4907562;28;97526;-55
2023/12/05 00:32:31;;;;;;;2.67;2.03;;;14.10;99.90;;;14.07;43.14;99495.38;4900334;28;98367;-48
2023/12/05 00:34:57;;;;;;;2.97;1.83;;;14.00;99.90;;;13.97;43.57;99492.47;4906282;28;97704;-51
2023/12/05 00:37:23;;;;;;;1.10;1.00;;;13.90;99.90;;;13.88;43.94;99494.91;4904781;28;97221;-50
2023/12/05 00:39:49;;;;;;;2.10;1.30;;;13.70;99.90;;;14.00;43.91;99494.91;4902921;28;97301;-49
2023/12/05 00:42:14;;;;;;;1.27;0.90;;;13.90;99.90;;;14.02;43.67;99486.00;4902424;28;98972;-51
2023/12/05 00:44:40;;;;;;;4.70;2.97;;;13.90;99.90;;;13.99;42.42;99493.22;4905961;28;97057;-47
2023/12/05 00:47:06;;;;;;;3.07;2.10;;;14.00;99.90;;;14.03;43.02;99487.69;4908059;28;97427;-55
2023/12/05 00:49:34;;;;;;;1.27;0.87;;;14.00;99.90;;;14.08;43.53;99485.59;4914136;28;101676;-44
2023/12/05 00:52:00;;;;;;;2.10;1.50;;;14.00;99.90;;;14.14;43.74;99487.81;4917065;28;97416;-52
2023/12/05 00:54:26;;;;;;;5.20;2.80;;;14.10;99.90;;;14.04;43.34;99487.63;4917476;28;97058;-45
2023/12/05 00:56:53;;;;;;;3.30;1.77;;;14.00;99.90;;;14.12;43.45;99487.09;4900315;28;97795;-45
2023/12/05 00:59:19;;;;;;;3.27;2.33;;;14.10;99.90;;;14.10;42.54;99483.69;4904573;28;97948;-45
2023/12/05 01:01:45;;;;;;;1.40;0.93;;;14.10;99.90;;;14.22;43.58;99488.16;4906793;28;98487;-49
2023/12/05 01:04:11;;;;;;;0.80;0.80;;;14.20;99.90;;;14.27;43.47;99486.03;4905726;28;97310;-46
2023/12/05 01:06:36;;;;;;;2.67;1.50;;;14.20;99.90;;;14.24;43.11;99491.56;4909687;28;100140;-57
2023/12/05 01:09:03;;;;;;;1.60;1.20;;;14.20;99.90;;;14.34;43.12;99482.00;4903408;28;97438;-45
2023/12/05 01:11:29;;;;;;;1.17;0.97;;;14.40;99.90;;;14.36;43.13;99485.41;4902635;28;97765;-48
2023/12/05 01:13:55;;;;;;;2.63;1.60;;;14.40;99.90;;;14.36;43.02;99490.72;4908863;28;97565;-45
2023/12/05 01:16:20;;;;;;;2.00;1.33;;;14.40;99.90;;;14.43;43.17;99491.97;4894880;28;97088;-48
2023/12/05 01:18:47;;;;;;;1.17;1.00;;;14.50;99.90;;;14.40;43.18;99489.53;4906702;28;100012;-46
2023/12/05 01:21:12;;;;;;;2.50;1.17;;;14.40;99.90;;;14.30;42.97;99491.13;4909538;28;97935;-47
2023/12/05 01:23:38;;;;;;;2.37;1.80;;;14.20;99.90;;;14.19;42.89;99499.00;4909205;28;98497;-46
2023/12/05 01:26:04;;;;;;;1.33;1.10;;;14.10;99.90;;;14.22;43.29;99490.81;4911219;28;97474;-45
2023/12/05 01:28:30;;;;;;;2.77;1.97;;;14.10;99.90;;;14.10;43.09;99489.00;4906432;28;97459;-45
2023/12/05 01:30:56;;;;;;;1.40;1.30;;;14.00;99.90;;;14.14;43.71;99485.16;4908108;28;98210;-46
2023/12/05 01:33:22;;;;;;;1.57;1.13;;;14.00;99.90;;;14.14;43.54;99490.47;4905187;28;98560;-48
2023/12/05 01:35:48;;;;;;;1.27;0.87;;;14.00;99.90;;;14.14;43.90;99485.16;4907649;28;97524;-50
2023/12/05 01:38:14;;;;;;;1.87;1.53;;;14.00;99.90;;;14.27;43.48;99480.72;4913934;28;97615;-46
2023/12/05 01:40:39;;;;;;;1.87;1.37;;;14.20;99.90;;;14.26;43.31;99485.19;4922886;28;97540;-47
2023/12/05 01:43:05;;;;;;;1.87;1.37;;;14.20;99.90;;;14.21;43.01;99481.16;4923621;28;98998;-47
2023/12/05 01:45:31;;;;;;;1.70;1.37;;;14.20;99.90;;;14.20;43.50;99476.81;4918431;28;108693;-46
2023/12/05 01:51:44;;;;;;;1.70;1.50;;;14.20;99.90;;;14.14;43.43;99474.56;4911916;28;101464;-47
2023/12/05 01:54:11;;;;;;;3.77;2.07;;;14.10;99.90;;;14.04;44.11;99481.47;4907818;28;97350;-48
2023/12/05 01:56:36;;;;;;;0.90;0.73;;;14.00;99.90;;;14.12;43.89;99479.97;4904280;28;98914;-50
2023/12/05 01:59:02;;;;;;;1.20;0.90;;;14.00;99.90;;;14.21;43.53;99475.84;4913392;28;100386;-45
2023/12/05 02:01:29;;;;;;;1.47;1.00;;;14.20;99.90;;;14.16;43.85;99476.16;4916345;28;97145;-45
2023/12/05 02:03:55;;;;;;;1.07;0.90;;;14.10;99.90;;;14.27;43.65;99470.13;4923386;28;97653;-46
2023/12/05 02:06:21;;;;;;;2.03;1.73;;;14.30;99.90;;;14.26;43.45;99468.41;4921083;28;97184;-44
2023/12/05 02:08:52;;;;;;;2.23;1.10;;;14.30;99.90;;;14.33;43.54;99464.41;4916442;28;97486;-45
2023/12/05 02:11:18;;;;;;;1.20;1.10;;;14.40;99.90;;;14.41;43.38;99459.38;4922548;28;97464;-50
2023/12/05 02:13:44;;;;;;;2.07;0.90;;;14.50;99.90;;;14.44;43.40;99456.53;4921230;28;96955;-47
2023/12/05 02:16:35;;;;;;;2.17;1.33;;;14.50;99.90;;;14.43;43.15;99454.81;4826024;28;97337;-46
2023/12/05 02:19:14;;;;;;;1.37;1.03;;;14.50;99.90;;;14.53;43.17;99450.59;4909821;28;99373;-45
2023/12/05 02:21:42;;;;;;;1.07;0.97;;;14.60;99.90;;;14.58;42.66;99456.41;4918853;28;103985;-47
2023/12/05 02:24:26;;;;;;;1.87;1.37;;;14.70;99.90;;;14.55;42.76;99456.66;4912004;28;97745;-50
2023/12/05 02:27:21;;;;;;;2.17;1.90;;;14.60;99.90;;;14.46;43.33;99449.31;4909071;28;97318;-44
2023/12/05 02:29:51;;;;;;;1.33;1.07;;;14.50;99.90;;;14.44;43.27;99443.28;4900175;28;102292;-45
2023/12/05 02:32:17;;;;;;;0.90;0.80;;;14.40;99.90;;;14.48;42.44;99444.78;4926126;28;98074;-45
2023/12/05 02:34:44;;;;;;;2.13;1.03;;;14.60;99.90;;;14.53;43.04;99442.66;4916768;28;97147;-45
2023/12/05 02:37:46;;;;;;;1.40;0.90;;;14.60;99.90;;;14.58;43.07;99437.00;4911384;28;97098;-45
2023/12/05 02:40:25;;;;;;;1.93;1.17;;;14.70;99.90;;;14.46;43.15;99441.38;4871322;28;101891;-47
2023/12/05 02:42:52;;;;;;;1.40;1.27;;;14.50;99.90;;;14.35;43.43;99441.25;4928575;28;97274;-46
2023/12/05 02:45:20;;;;;;;1.30;1.20;;;14.40;99.90;;;14.46;43.33;99438.72;4917684;28;104334;-49
2023/12/05 02:47:49;;;;;;;2.03;1.53;;;14.50;99.90;;;14.41;43.28;99435.50;4916778;28;97138;-48
2023/12/05 02:50:18;;;;;;;1.27;1.00;;;14.40;99.90;;;14.36;43.84;99435.00;4907351;28;98856;-50
2023/12/05 02:52:44;;;;;;;1.80;1.03;;;14.30;99.90;;;14.39;43.47;99434.78;4921905;28;97174;-48
2023/12/05 02:55:10;;;;;;;1.90;1.20;;;14.40;99.90;;;14.40;43.11;99433.81;4914278;28;97086;-45
2023/12/05 02:57:36;;;;;;;2.93;1.87;;;14.40;99.90;;;14.31;43.58;99439.75;4925302;28;97657;-50
2023/12/05 03:00:06;;;;;;;1.77;0.90;;;14.30;99.90;;;14.32;43.93;99436.19;4914795;28;99441;-50
2023/12/05 03:02:32;;;;;;;2.13;1.60;;;14.30;99.90;;;14.19;44.09;99430.03;4922350;28;97229;-51
2023/12/05 03:04:58;;;;;;;1.50;1.00;;;14.10;99.90;;;14.23;43.83;99434.16;4917829;28;100036;-45
2023/12/05 03:07:23;;;;;;;1.17;0.80;;;14.10;99.90;;;14.21;44.05;99436.06;4922358;28;97335;-50
2023/12/05 03:09:50;;;;;;;1.90;1.17;;;14.10;99.90;;;14.24;43.93;99427.91;4911679;28;96991;-50
2023/12/05 03:12:16;;;;;;;1.13;1.03;;;14.10;99.90;;;14.27;43.73;99435.63;4920787;28;97380;-48
2023/12/05 03:14:42;;;;;;;1.27;0.83;;;14.20;99.90;;;14.28;43.90;99434.69;4913213;28;96719;-48
2023/12/05 03:17:08;;;;;;;2.63;1.90;;;14.20;99.90;;;14.25;43.21;99434.91;4923677;28;97009;-50
2023/12/05 03:19:34;;;;;;;1.17;0.77;;;14.30;99.90;;;14.29;43.99;99433.72;4912257;28;121402;-49
2023/12/05 03:21:59;;;;;;;0.70;0.60;;;14.20;99.90;;;14.26;43.90;99433.94;4918325;28;107919;-49
2023/12/05 03:24:25;;;;;;;1.13;0.70;;;14.20;99.90;;;14.29;43.92;99431.06;4914678;28;97283;-52
2023/12/05 03:26:51;;;;;;;2.50;0.90;;;14.30;99.90;;;14.27;43.91;99422.38;4924912;28;97093;-49
2023/12/05 03:29:17;;;;;;;2.07;1.37;;;14.20;99.90;;;14.22;43.94;99422.72;4910984;28;111331;-52
2023/12/05 03:31:42;;;;;;;1.73;1.47;;;14.20;99.90;;;14.25;43.66;99419.84;4917678;28;97250;-50
2023/12/05 03:34:08;;;;;;;1.47;1.17;;;14.20;99.90;;;14.29;44.03;99421.31;4914302;28;107990;-47
2023/12/05 03:36:34;;;;;;;1.63;1.00;;;14.30;99.90;;;14.39;43.63;99416.22;4908147;28;108962;-48
2023/12/05 03:39:00;;;;;;;2.03;1.57;;;14.40;99.90;;;14.35;43.52;99409.44;4924372;28;97534;-50
2023/12/05 03:41:26;;;;;;;1.67;0.90;;;14.40;99.90;;;14.35;43.88;99416.53;4920772;28;98142;-53
2023/12/05 03:43:51;;;;;;;1.20;0.93;;;14.30;99.90;;;14.36;43.87;99412.94;4920110;28;97400;-50
2023/12/05 03:46:17;;;;;;;3.50;2.20;;;14.40;99.90;;;14.16;44.49;99419.63;4919209;28;98918;-52
2023/12/05 03:48:43;;;;;;;1.53;0.93;;;14.10;99.90;;;14.26;44.02;99415.38;4903250;28;99839;-54
2023/12/05 03:51:09;;;;;;;1.47;1.10;;;14.20;99.90;;;14.19;44.09;99408.81;4920984;28;97228;-52
2023/12/05 03:53:34;;;;;;;2.07;1.43;;;14.20;99.90;;;14.08;44.60;99416.66;4921733;28;97458;-53
2023/12/05 03:56:00;;;;;;;0.97;0.80;;;14.10;99.90;;;14.23;44.08;99420.91;4919971;28;104100;-54
2023/12/05 03:58:26;;;;;;;1.17;1.00;;;14.20;99.90;;;14.27;44.22;99422.38;4916631;28;97506;-51
2023/12/05 04:00:52;;;;;;;1.57;0.97;;;14.20;99.90;;;14.35;43.79;99425.34;4916094;28;96913;-52
2023/12/05 04:03:19;;;;;;;0.97;0.80;;;14.40;99.90;;;14.32;43.99;99408.78;4918597;28;98686;-54
2023/12/05 04:05:45;;;;;;;1.53;1.40;;;14.40;99.90;;;14.38;43.91;99414.50;4913845;28;97173;-47
2023/12/05 04:08:11;;;;;;;1.57;1.00;;;14.50;99.90;;;14.36;43.69;99421.75;4904428;28;98684;-50
2023/12/05 04:10:37;;;;;;;1.10;0.87;;;14.40;99.90;;;14.29;44.37;99417.81;4918770;28;97792;-50
2023/12/05 04:13:02;;;;;;;0.73;0.70;;;14.30;99.90;;;14.33;43.93;99427.28;4915235;28;97262;-48
2023/12/05 04:15:28;;;;;;;0.77;0.77;;;14.20;99.90;;;14.30;44.20;99425.66;4914783;28;97152;-53
2023/12/05 04:17:54;;;;;;;2.07;1.50;;;14.20;99.90;;;14.21;43.96;99422.81;4888420;28;97878;-48
2023/12/05 04:20:21;;;;;;;1.03;0.50;;;14.20;99.90;;;14.23;44.33;99420.91;4902669;28;98498;-51
2023/12/05 04:22:47;;;;;;;1.47;0.87;;;14.20;99.90;;;14.27;44.20;99427.69;4924123;28;96769;-49
2023/12/05 04:25:14;;;;;;;2.23;1.80;;;14.20;99.90;;;14.13;44.65;99435.75;4923647;28;97610;-52
2023/12/05 04:27:39;;;;;;;1.77;1.57;;;14.00;99.90;;;14.03;44.98;99434.69;4916897;28;97454;-56
2023/12/05 04:30:06;;;;;;;0.60;0.57;;;13.90;99.90;;;14.08;44.74;99427.28;4921602;28;97230;-52
2023/12/05 04:32:32;;;;;;;2.40;1.43;;;13.90;99.90;;;14.01;45.04;99440.09;4895297;28;96989;-50
2023/12/05 04:34:58;;;;;;;0.77;0.63;;;13.90;99.90;;;13.91;45.12;99437.25;4919892;28;96837;-49
2023/12/05 04:37:24;;;;;;;1.87;1.27;;;13.70;99.90;;;14.04;44.60;99441.72;4905813;28;100562;-49
2023/12/05 04:39:49;;;;;;;2.03;1.27;;;13.90;99.90;;;14.13;44.59;99433.94;4915743;28;97496;-50
2023/12/05 04:42:15;;;;;;;0.70;0.70;;;14.00;99.90;;;14.06;44.77;99434.50;4920888;28;97525;-50
2023/12/05 04:44:41;;;;;;;1.70;0.97;;;13.90;99.90;;;14.02;44.67;99440.94;4918817;28;97026;-48
2023/12/05 04:47:07;;;;;;;2.57;1.43;;;13.90;99.90;;;14.02;45.04;99443.59;4915106;28;97104;-49
2023/12/05 04:49:33;;;;;;;1.10;0.90;;;13.90;99.90;;;14.03;45.12;99442.63;4921246;28;97424;-49
2023/12/05 04:51:59;;;;;;;0.70;0.70;;;13.90;99.90;;;14.09;44.92;99439.56;4922019;28;101683;-49
2023/12/05 04:54:25;;;;;;;2.20;1.17;;;13.90;99.90;;;14.07;45.06;99438.84;4915840;28;102557;-50
2023/12/05 04:56:51;;;;;;;1.53;1.00;;;13.90;99.90;;;13.85;46.59;99442.94;4908967;28;97149;-50
2023/12/05 04:59:16;;;;;;;1.17;1.00;;;13.70;99.90;;;13.95;45.27;99437.88;4917041;28;105140;-46
2023/12/05 05:01:43;;;;;;;1.03;0.83;;;13.70;99.90;;;13.99;44.94;99445.50;4914321;28;96749;-50
2023/12/05 05:04:09;;;;;;;2.43;1.73;;;13.80;99.90;;;13.85;46.79;99452.69;4894581;28;98196;-57
2023/12/05 05:06:35;;;;;;;3.27;2.00;;;13.80;99.90;;;13.33;49.32;99462.34;4895830;28;103007;-53
2023/12/05 05:09:00;;;;;;;1.27;1.07;;;13.10;99.90;;;13.29;48.19;99450.25;4907094;28;110467;-53
2023/12/05 05:11:26;;;;;;;2.17;1.50;;;12.90;99.90;;;13.18;49.02;99452.75;4904271;28;97414;-55
2023/12/05 05:13:52;;;;;;;1.87;1.30;;;12.80;99.90;;;13.28;47.09;99453.00;4920899;28;97032;-52
2023/12/05 05:16:18;;;;;;;1.50;1.17;;;12.90;99.90;;;13.45;46.53;99460.66;4902341;28;114020;-51
2023/12/05 05:18:44;;;;;;;1.37;0.80;;;13.10;99.90;;;13.47;46.78;99458.78;4914119;28;111613;-52
2023/12/05 05:21:11;;;;;;;1.53;0.97;;;13.20;99.90;;;13.32;47.87;99463.31;4909334;28;97246;-59
2023/12/05 05:23:38;;;;;;;1.00;0.70;;;13.00;99.90;;;13.36;47.01;99472.72;4915290;28;97312;-52
2023/12/05 05:26:04;;;;;;;1.03;0.93;;;13.00;99.90;;;13.37;47.19;99463.84;4913639;28;97659;-48
2023/12/05 05:28:30;;;;;;;2.87;0.87;;;13.10;99.90;;;13.50;46.79;99463.03;4917379;28;97928;-49
2023/12/05 05:30:55;;;;;;;1.20;0.90;;;13.20;99.90;;;13.50;47.02;99463.03;4915573;28;97029;-45
2023/12/05 05:33:22;;;;;;;1.10;0.97;;;13.20;99.90;;;13.39;47.21;99454.00;4919609;28;97321;-51
2023/12/05 05:35:48;;;;;;;0.60;0.60;;;13.10;99.90;;;13.52;46.56;99461.13;4904000;28;97427;-46
2023/12/05 05:38:14;;;;;;;2.03;1.50;;;13.20;99.90;;;13.53;46.82;99468.13;4923013;28;97078;-49
2023/12/05 05:40:43;;;;;;;1.30;0.80;;;13.30;99.90;;;13.61;46.18;99471.13;4927462;28;108445;-55
2023/12/05 05:43:09;;;;;;;2.20;1.60;;;13.40;99.90;;;13.52;47.47;99469.91;4988553;23;97910;-46
2023/12/05 05:45:35;;;;;;;1.80;1.47;;;13.30;99.90;;;13.47;48.07;99471.19;4921833;28;100328;-45
2023/12/05 05:48:01;;;;;;;1.07;0.93;;;13.10;99.90;;;13.38;47.90;99473.47;4927149;28;98090;-45
2023/12/05 05:50:27;;;;;;;1.27;1.00;;;13.00;99.90;;;13.37;47.40;99469.13;4904769;28;97485;-47
2023/12/05 05:52:53;;;;;;;1.40;0.97;;;13.00;99.90;;;13.17;48.34;99464.28;4897330;28;97199;-44
2023/12/05 05:55:19;;;;;;;2.10;1.50;;;12.80;99.90;;;13.04;50.13;99472.16;4875935;28;99826;-44
2023/12/05 05:57:45;;;;;;;1.50;1.33;;;12.60;99.90;;;13.00;48.73;99469.78;4897119;28;97192;-47
2023/12/05 06:00:13;;;;;;;2.50;1.30;;;12.50;99.90;;;13.01;49.74;99466.19;4902337;28;97236;-45
2023/12/05 06:02:39;;;;;;;1.23;0.67;;;12.60;99.90;;;13.02;48.22;99467.91;4900288;28;97414;-46
2023/12/05 06:05:05;;;;;;;1.70;1.57;;;12.60;99.90;;;12.98;49.46;99471.69;4904223;28;110470;-46
2023/12/05 06:07:31;;;;;;;0.93;0.90;;;12.60;99.90;;;13.14;47.94;99472.38;4896457;28;97435;-44
2023/12/05 06:09:57;;;;;;;2.67;1.60;;;12.80;99.90;;;13.02;50.30;99467.91;4892852;28;97435;-47
2023/12/05 06:12:23;;;;;;;0.60;0.60;;;12.70;99.90;;;13.10;48.06;99476.19;4894129;28;97680;-47
2023/12/05 06:14:49;;;;;;;1.40;1.13;;;12.70;99.90;;;13.25;47.48;99475.22;4896409;28;97883;-46
2023/12/05 06:17:15;;;;;;;1.70;0.93;;;13.00;99.90;;;13.25;48.66;99479.69;4894076;28;97538;-47
2023/12/05 06:19:41;;;;;;;1.50;0.87;;;13.00;99.90;;;13.35;47.69;99480.78;4879153;28;97116;-50
2023/12/05 06:22:07;;;;;;;0.90;0.40;;;13.10;99.90;;;13.51;46.88;99481.47;4880474;28;100955;-47
2023/12/05 06:24:33;;;;;;;1.47;0.90;;;13.30;99.90;;;13.58;46.88;99477.44;4897614;28;98083;-47
2023/12/05 06:26:59;;;;;;;0.63;0.57;;;13.40;99.90;;;13.54;47.51;99477.75;4900221;28;97124;-50
2023/12/05 06:29:25;;;;;;;0.87;0.70;;;13.40;99.90;;;13.39;47.63;99485.78;4890862;28;99786;-51
2023/12/05 06:31:51;;;;;;;1.67;1.53;;;13.10;99.90;;;13.37;48.25;99484.19;4900696;28;97537;-51
2023/12/05 06:34:17;;;;;;;2.23;1.37;;;13.10;99.90;;;13.30;48.91;99489.00;4897268;28;97415;-46
2023/12/05 06:36:43;;;;;;;1.37;1.10;;;13.00;99.90;;;13.02;49.38;99484.66;4895008;28;97587;-49
2023/12/05 06:39:08;;;;;;;1.30;1.20;;;12.60;99.90;;;13.17;48.62;99488.09;4898545;28;97141;-47
2023/12/05 06:41:35;;;;;;;2.33;1.13;;;12.80;99.90;;;12.98;49.35;99488.41;4895389;28;97369;-44
2023/12/05 06:44:02;;;;;;;1.73;1.30;;;12.60;99.90;;;12.93;51.00;99492.31;4898262;28;98328;-49
2023/12/05 06:46:29;;;;;;;2.13;1.70;;;12.50;99.90;;;12.95;49.37;99493.06;4897976;28;97374;-45
2023/12/05 06:48:54;;;;;;;1.70;1.23;;;12.50;99.90;;;12.84;51.31;99500.81;4898597;28;97174;-50
2023/12/05 06:51:21;;;;;;;3.33;1.67;;;12.50;99.90;;;12.56;53.13;99505.19;4900716;28;96940;-50
2023/12/05 06:53:47;;;;;;;1.97;1.40;;;12.20;99.90;;;12.32;54.76;99506.72;4906166;28;98022;-46
2023/12/05 06:56:15;;;;;;;1.63;1.43;;;11.90;99.90;;;12.31;51.99;99507.66;4903833;28;97109;-49
2023/12/05 06:58:42;;;;;;;2.47;1.53;;;11.70;99.90;;;12.44;53.27;99508.59;4902433;28;97422;-52
2023/12/05 07:01:08;;;;;;;2.20;1.17;;;12.00;99.90;;;12.46;53.01;99512.00;4907501;28;97098;-45
2023/12/05 07:03:34;;;;;;;2.27;1.33;;;12.10;99.90;;;12.09;55.24;99516.03;4899392;28;97063;-48
2023/12/05 07:06:00;;;;;;;1.77;1.10;;;11.80;99.90;;;12.06;54.22;99519.69;4910844;28;101857;-52
2023/12/05 07:08:26;;;;;;;2.70;1.70;;;11.60;99.90;;;11.91;56.80;99525.91;4903862;28;96990;-51
2023/12/05 07:10:53;;;;;;;1.50;1.23;;;11.50;99.90;;;11.75;57.05;99525.06;4899385;28;99126;-47
2023/12/05 07:13:18;;;;;;;1.33;1.20;;;11.30;99.90;;;11.80;56.85;99526.53;4897960;28;97849;-49
2023/12/05 07:15:44;;;;;;;2.37;1.60;;;11.40;99.90;;;11.67;57.45;99529.94;4899570;28;109179;-52
2023/12/05 07:18:10;;;;;;;2.20;1.50;;;11.30;99.90;;;11.56;57.26;99536.66;4893035;28;97486;-58
2023/12/05 07:20:36;;;;;;;1.77;0.90;;;11.20;99.90;;;11.69;55.83;99538.59;4893488;28;98258;-57
2023/12/05 07:23:02;;;;;;;1.73;1.17;;;11.30;99.90;;;11.67;56.49;99545.78;4892853;28;105875;-51
2023/12/05 07:25:28;;;;;;;2.23;1.37;;;11.20;99.90;;;11.68;55.76;99550.13;4896886;28;98449;-52
2023/12/05 07:27:54;;;;;;;1.20;1.00;;;11.30;99.90;;;11.49;58.43;99545.91;4888887;28;97495;-52
2023/12/05 07:30:22;;;;;;;1.10;0.97;;;11.10;99.90;;;11.66;54.62;99552.84;4893787;28;109309;-46
2023/12/05 07:32:47;;;;;;;2.40;1.47;;;11.30;99.90;;;11.67;57.70;99558.97;4897910;28;97443;-53
2023/12/05 07:35:14;;;;;;;1.80;1.37;;;11.30;99.90;;;11.55;58.71;99561.38;4894242;28;101931;-53
2023/12/05 07:37:39;;;;;;;3.53;1.17;;;11.30;99.90;;;11.43;59.38;99564.75;4894787;28;97306;-51
2023/12/05 07:40:06;;;;;;;2.80;1.30;;;11.10;99.90;;;11.32;59.86;99575.03;4899506;28;98339;-51
2023/12/05 07:42:32;;;;;;;2.33;1.60;;;11.00;99.90;;;11.41;59.21;99574.50;4897062;28;98964;-54
2023/12/05 07:44:58;;;;;;;1.57;1.37;;;11.10;99.90;;;11.41;57.20;99579.78;4902501;28;97122;-54
2023/12/05 07:47:24;;;;;;;1.90;0.70;;;11.00;99.90;;;11.32;58.83;99581.16;4897976;28;97214;-55
2023/12/05 07:49:50;;;;;;;1.20;0.90;;;11.00;99.90;;;11.23;60.78;99584.31;4891320;28;96999;-55
2023/12/05 07:52:16;;;;;;;1.23;0.90;;;10.90;99.90;;;11.25;58.45;99584.22;4898360;28;97227;-52
2023/12/05 07:54:42;;;;;;;1.93;1.37;;;10.90;99.90;;;11.17;58.42;99589.09;4893217;28;112770;-49
2023/12/05 07:57:08;;;;;;;1.70;1.30;;;10.80;99.90;;;11.17;61.21;99594.38;4881696;28;97433;-50
2023/12/05 07:59:34;;;;;;;1.50;1.30;;;10.90;99.90;;;11.15;61.27;99598.88;4896759;28;97551;-50
2023/12/05 08:01:59;;;;;;;2.40;1.40;;;10.90;99.90;;;11.10;61.42;99595.63;4896641;28;97752;-49
2023/12/05 08:04:25;;;;;;;2.27;1.20;;;10.80;99.90;;;11.13;61.12;99592.81;4896594;28;115139;-53
2023/12/05 08:06:51;;;;;;;1.50;1.00;;;10.80;99.90;;;11.18;60.20;99598.72;4898324;28;106935;-51
2023/12/05 08:09:17;;;;;;;0.70;0.70;;;10.80;99.90;;;11.18;59.50;99601.34;4894700;28;97819;-49
2023/12/05 08:11:43;;;;;;;1.57;1.07;;;10.80;99.90;;;11.18;58.32;99604.00;4894863;28;97613;-52
2023/12/05 08:14:08;;;;;;;2.60;1.50;;;10.80;99.90;;;11.13;61.67;99606.00;4889426;28;97441;-49
2023/12/05 08:16:34;;;;;;;1.00;0.70;;;10.80;99.90;;;11.30;57.97;99603.31;4879665;28;97378;-49
2023/12/05 08:19:00;;;;;;;3.00;1.23;;;10.90;99.90;;;11.22;61.80;99605.50;4892221;28;100173;-51
2023/12/05 08:21:26;;;;;;;2.87;1.00;;;10.90;99.90;;;11.12;61.61;99610.44;4876010;28;97495;-50
2023/12/05 08:23:52;;;;;;;0.97;0.70;;;10.80;99.90;;;11.18;60.34;99614.53;4895458;28;98533;-52
2023/12/05 08:26:18;;;;;;;3.23;1.30;;;10.80;99.90;;;11.19;61.47;99614.47;4890981;28;97261;-54
2023/12/05 08:28:43;;;;;;;1.83;1.43;;;10.80;99.90;;;11.16;62.19;99616.41;4883961;28;105790;-50
2023/12/05 08:31:09;;;;;;;1.73;1.40;;;10.80;99.90;;;11.21;62.07;99617.84;4882971;28;105923;-53
2023/12/05 08:33:36;;;;;;;3.47;1.23;;;10.90;99.90;;;11.26;61.18;99617.59;4863274;28;104498;-52
2023/12/05 08:36:02;;;;;;;6.57;2.87;;;10.90;99.90;;;11.12;62.80;99628.06;4879902;28;97680;-56
2023/12/05 08:38:28;;;;;;;2.13;0.60;;;10.80;99.90;;;11.20;59.76;99623.22;4867296;28;97432;-55
2023/12/05 08:40:54;;;;;;;3.27;1.60;;;10.80;99.90;;;11.19;61.73;99629.44;4882705;28;98112;-48
2023/12/05 08:43:20;;;;;;;2.03;1.27;;;10.90;99.90;;;11.09;63.16;99636.13;4879707;28;99539;-53
2023/12/05 08:45:46;;;;;;;2.67;0.80;;;10.80;99.90;;;11.19;61.58;99632.09;4881576;28;102984;-50
2023/12/05 08:48:12;;;;;;;1.30;1.00;;;10.90;99.90;;;11.19;62.71;99634.72;4867113;28;99297;-47
2023/12/05 08:50:39;;;;;;;1.30;1.00;;;10.90;99.90;;;11.22;60.86;99634.53;4878929;28;103259;-53
2023/12/05 08:53:05;;;;;;;0.77;0.70;;;10.90;99.90;;;11.37;61.11;99630.22;4879718;28;97540;-50
2023/12/05 08:55:31;;;;;;;1.30;0.80;;;11.00;99.90;;;11.38;60.11;99632.78;4881751;28;97123;-55
2023/12/05 08:57:57;;;;;;;1.13;0.90;;;11.10;99.90;;;11.42;61.96;99634.28;4881780;28;99533;-52
2023/12/05 09:00:23;;;;;;;3.50;1.50;;;11.10;99.90;;;11.48;60.39;99628.69;4876604;28;97751;-53
2023/12/05 09:02:49;;;;;;;0.60;0.60;;;11.10;99.90;;;11.56;60.88;99634.38;4881783;28;97547;-51
2023/12/05 09:05:15;;;;;;;1.23;0.90;;;11.20;99.90;;;11.55;61.68;99635.31;4863241;28;97407;-54
2023/12/05 09:07:40;;;;;;;0.97;0.60;;;11.30;99.90;;;11.60;60.41;99638.59;4886488;28;99340;-54
2023/12/05 09:10:07;;;;;;;4.10;1.27;;;11.30;99.90;;;11.49;62.60;99640.97;4882996;28;107729;-51
2023/12/05 09:12:33;;;;;;;1.73;0.90;;;11.20;99.90;;;11.22;63.56;99650.38;4881787;28;97206;-55
2023/12/05 09:14:58;;;;;;;0.90;0.80;;;11.00;99.90;;;11.00;64.47;99643.63;4878055;28;98792;-57
2023/12/05 09:17:24;;;;;;;2.40;0.93;;;10.80;99.90;;;10.93;65.07;99644.88;4881050;28;96996;-54
2023/12/05 09:19:53;;;;;;;0.63;0.60;;;10.70;99.90;;;10.95;65.20;99653.56;4876431;28;97437;-58
2023/12/05 09:22:20;;;;;;;1.73;1.00;;;10.70;99.90;;;11.03;64.69;99648.75;4875101;28;97620;-57
2023/12/05 09:24:47;;;;;;;1.23;0.70;;;10.80;99.90;;;11.12;64.73;99657.09;4881818;28;97370;-54
2023/12/05 09:27:13;;;;;;;0.90;0.70;;;10.90;99.90;;;11.13;64.28;99658.78;4878700;28;97808;-53
2023/12/05 09:29:39;;;;;;;1.07;0.60;;;10.90;99.90;;;11.36;57.85;99650.50;4885464;28;98363;-55
2023/12/05 09:32:05;;;;;;;1.30;0.90;;;11.00;99.90;;;11.44;61.51;99656.22;4884853;28;99031;-57
2023/12/05 09:34:31;;;;;;;4.07;1.30;;;11.20;99.90;;;11.73;59.84;99664.31;4887805;28;98833;-48
2023/12/05 09:36:56;;;;;;;1.77;0.70;;;11.50;99.90;;;11.83;59.94;99662.88;4886781;28;98043;-54
2023/12/05 09:39:23;;;;;;;2.43;1.23;;;11.70;99.90;;;11.79;60.87;99661.34;4884939;28;99463;-49
2023/12/05 09:41:53;;;;;;;0.57;0.40;;;11.60;99.90;;;11.75;58.05;99665.94;4884568;28;97219;-53
2023/12/05 09:44:23;;;;;;;0.70;0.70;;;11.50;99.90;;;11.60;62.92;99669.41;4884577;28;97540;-53
2023/12/05 09:46:58;;;;;;;1.63;0.70;;;11.40;99.90;;;11.60;62.48;99670.28;4884083;28;98230;-52
2023/12/05 09:49:28;;;;;;;2.07;0.80;;;11.40;99.90;;;11.68;59.42;99663.69;4871921;28;98444;-57
2023/12/05 09:51:55;;;;;;;1.40;0.70;;;11.40;99.90;;;11.76;60.89;99672.06;4899401;28;99026;-55
2023/12/05 09:54:22;;;;;;;1.20;0.33;;;11.50;99.90;;;12.00;55.75;99673.31;4882523;28;97190;-52
2023/12/05 09:56:49;;;;;;;1.47;0.37;;;11.70;99.90;;;11.96;57.49;99677.09;4871195;28;97443;-49
2023/12/05 09:59:18;;;;;;;0.60;0.60;;;11.70;99.90;;;12.17;55.20;99665.31;4886829;28;98823;-55
2023/12/05 10:01:45;;;;;;;0.90;0.70;;;11.90;99.90;;;12.32;58.83;99673.28;4887681;28;97239;-56
2023/12/05 10:04:15;;;;;;;0.33;0.20;;;12.20;99.90;;;12.30;57.30;99670.75;4888121;28;97647;-49
2023/12/05 10:06:41;;;;;;;3.23;0.80;;;12.10;99.90;;;12.21;60.77;99682.69;4855185;28;98036;-58
2023/12/05 10:09:09;;;;;;;1.30;0.70;;;12.00;99.90;;;12.27;56.33;99680.63;4877788;28;101954;-56
2023/12/05 10:11:36;;;;;;;0.73;0.60;;;12.00;99.90;;;12.28;60.20;99682.31;4882991;28;117411;-56
2023/12/05 10:14:03;;;;;;;2.77;0.63;;;12.00;99.90;;;12.38;59.67;99683.50;4867979;28;103154;-52
2023/12/05 10:16:31;;;;;;;1.03;0.50;;;12.20;99.90;;;12.33;58.18;99678.50;4887315;28;97494;-52
2023/12/05 10:18:57;;;;;;;2.33;0.90;;;12.10;99.90;;;12.16;62.10;99690.03;4884661;28;113269;-59